createdAt,value
2022-12-18T00:01:32.757Z,23.80
2022-12-18T00:04:03.699Z,24.27
2022-12-18T00:06:31.860Z,23.87
2022-12-18T00:09:00.900Z,24.17
2022-12-18T00:11:31.678Z,23.83
2022-12-18T00:14:02.029Z,22.83
2022-12-18T00:16:36.456Z,23.73
2022-12-18T00:19:05.994Z,24.93
2022-12-18T00:21:34.664Z,25.20
2022-12-18T00:24:02.887Z,24.83
2022-12-18T00:26:33.523Z,23.83
2022-12-18T00:29:14.876Z,25.90
2022-12-18T00:31:44.041Z,24.20
2022-12-18T00:34:14.127Z,24.20
2022-12-18T00:36:42.463Z,24.97
2022-12-18T00:39:11.813Z,23.37
2022-12-18T00:41:57.601Z,24.93
2022-12-18T00:44:25.135Z,25.00
2022-12-18T00:46:52.357Z,26.10
2022-12-18T00:49:21.190Z,26.30
2022-12-18T00:51:49.055Z,23.60
2022-12-18T00:54:17.122Z,25.87
2022-12-18T00:56:51.447Z,26.27
2022-12-18T00:59:19.679Z,23.57
2022-12-18T01:01:48.221Z,24.03
2022-12-18T01:04:16.248Z,24.73
2022-12-18T01:06:43.500Z,22.43
2022-12-18T01:09:13.799Z,23.33
2022-12-18T01:11:41.493Z,24.93
2022-12-18T01:14:09.677Z,24.30
2022-12-18T01:16:36.894Z,25.60
2022-12-18T01:19:04.429Z,25.43
2022-12-18T01:21:31.866Z,24.13
2022-12-18T01:23:59.913Z,24.80
2022-12-18T01:26:30.616Z,24.47
2022-12-18T01:28:59.441Z,22.87
2022-12-18T01:31:33.073Z,22.67
2022-12-18T01:34:06.151Z,24.77
2022-12-18T01:36:37.865Z,23.57
2022-12-18T01:39:14.043Z,23.37
2022-12-18T01:42:00.945Z,24.80
2022-12-18T01:45:03.433Z,23.87
2022-12-18T01:47:37.821Z,23.77
2022-12-18T01:50:24.632Z,21.87
2022-12-18T01:53:01.292Z,21.80
2022-12-18T01:55:36.106Z,20.63
2022-12-18T01:58:04.628Z,21.67
2022-12-18T02:00:32.760Z,22.77
2022-12-18T02:03:00.117Z,20.53
2022-12-18T02:06:05.754Z,21.93
2022-12-18T02:08:52.016Z,20.17
2022-12-18T02:11:58.295Z,20.47
2022-12-18T02:15:04.562Z,20.93
2022-12-18T02:17:38.852Z,21.43
2022-12-18T02:20:19.124Z,22.37
2022-12-18T02:22:55.066Z,21.17
2022-12-18T02:25:48.914Z,21.70
2022-12-18T02:28:21.866Z,21.00
2022-12-18T02:30:53.507Z,21.53
2022-12-18T02:33:25.221Z,23.07
2022-12-18T02:35:55.460Z,23.07
2022-12-18T02:38:26.114Z,22.60
2022-12-18T02:40:55.114Z,24.03
2022-12-18T02:43:22.621Z,24.83
2022-12-18T02:45:55.899Z,26.33
2022-12-18T02:48:33.446Z,23.73
2022-12-18T02:51:30.175Z,26.53
2022-12-18T02:54:23.950Z,24.10
2022-12-18T02:56:56.938Z,24.50
2022-12-18T02:59:42.173Z,26.83
2022-12-18T03:02:24.677Z,25.90
2022-12-18T03:05:18.771Z,25.10
2022-12-18T03:07:58.309Z,25.87
2022-12-18T03:10:32.151Z,24.57
2022-12-18T03:13:16.698Z,24.93
2022-12-18T03:15:50.629Z,25.47
2022-12-18T03:18:28.651Z,24.87
2022-12-18T03:21:03.929Z,25.00
2022-12-18T03:23:40.731Z,24.20
2022-12-18T03:26:18.561Z,27.73
2022-12-18T03:28:56.853Z,25.63
2022-12-18T03:31:27.493Z,25.73
2022-12-18T03:34:00.480Z,24.87
2022-12-18T03:36:28.910Z,24.70
2022-12-18T03:38:56.204Z,26.37
2022-12-18T03:41:50.549Z,24.63
2022-12-18T03:44:51.089Z,24.33
2022-12-18T03:47:36.262Z,25.13
2022-12-18T03:50:48.235Z,24.50
2022-12-18T03:53:59.073Z,24.83
2022-12-18T03:56:34.182Z,25.13
2022-12-18T03:59:05.670Z,26.07
2022-12-18T04:01:40.242Z,26.70
2022-12-18T04:04:10.992Z,23.93
2022-12-18T04:06:40.924Z,27.60
2022-12-18T04:09:09.233Z,26.97
2022-12-18T04:11:36.529Z,26.83
2022-12-18T04:14:07.190Z,27.00
2022-12-18T04:16:34.709Z,26.50
2022-12-18T04:19:02.339Z,25.07
2022-12-18T04:21:29.581Z,25.70
2022-12-18T04:23:57.094Z,25.43
2022-12-18T04:26:24.447Z,24.73
2022-12-18T04:28:51.959Z,25.60
2022-12-18T04:31:19.254Z,24.33
2022-12-18T04:33:46.773Z,25.70
2022-12-18T04:36:14.144Z,25.63
2022-12-18T04:38:41.889Z,25.60
2022-12-18T04:41:09.298Z,26.37
2022-12-18T04:43:36.997Z,28.93
2022-12-18T04:46:09.485Z,28.37
2022-12-18T04:48:38.311Z,27.53
2022-12-18T04:51:07.090Z,30.93
2022-12-18T04:53:34.883Z,27.67
2022-12-18T04:56:11.768Z,27.73
2022-12-18T04:58:41.459Z,25.47
2022-12-18T05:01:10.358Z,24.37
2022-12-18T05:03:39.766Z,27.63
2022-12-18T05:06:08.582Z,27.90
2022-12-18T05:08:36.528Z,28.30
2022-12-18T05:11:11.288Z,30.67
2022-12-18T05:13:39.910Z,29.83
2022-12-18T05:16:08.679Z,28.07
2022-12-18T05:18:36.870Z,30.23
2022-12-18T05:21:04.630Z,29.97
2022-12-18T05:23:32.662Z,29.67
2022-12-18T05:26:03.359Z,29.17
2022-12-18T05:28:33.078Z,33.77
2022-12-18T05:31:03.485Z,31.03
2022-12-18T05:33:35.543Z,33.20
2022-12-18T05:36:06.707Z,31.20
2022-12-18T05:38:37.665Z,29.17
2022-12-18T05:41:06.593Z,32.87
2022-12-18T05:43:37.542Z,31.93
2022-12-18T05:46:14.028Z,34.43
2022-12-18T05:48:42.896Z,28.83
2022-12-18T05:51:15.547Z,31.77
2022-12-18T05:53:44.395Z,33.70
2022-12-18T05:56:21.402Z,31.33
2022-12-18T05:58:54.203Z,30.93
2022-12-18T06:01:26.464Z,30.17
2022-12-18T06:03:54.964Z,34.63
2022-12-18T06:06:28.713Z,34.13
2022-12-18T06:08:57.686Z,34.13
2022-12-18T06:11:28.181Z,35.33
2022-12-18T06:13:59.327Z,34.67
2022-12-18T06:16:28.840Z,35.40
2022-12-18T06:19:02.738Z,32.73
2022-12-18T06:21:31.679Z,34.63
2022-12-18T06:24:00.983Z,32.47
2022-12-18T06:26:28.755Z,32.00
2022-12-18T06:28:56.560Z,33.17
2022-12-18T06:31:23.898Z,31.93
2022-12-18T06:33:51.581Z,35.37
2022-12-18T06:36:18.908Z,34.30
2022-12-18T06:38:46.456Z,35.57
2022-12-18T06:41:20.921Z,32.23
2022-12-18T06:43:48.714Z,34.23
2022-12-18T06:46:16.533Z,34.30
2022-12-18T06:48:47.372Z,36.13
2022-12-18T06:51:21.939Z,36.27
2022-12-18T06:53:49.941Z,37.57
2022-12-18T06:56:17.623Z,38.17
2022-12-18T06:58:45.373Z,36.57
2022-12-18T07:01:14.865Z,42.97
2022-12-18T07:03:44.586Z,39.70
2022-12-18T07:06:21.184Z,46.47
2022-12-18T07:08:50.669Z,44.07
2022-12-18T07:11:19.147Z,43.00
2022-12-18T07:13:47.877Z,79.17
2022-12-18T07:16:25.159Z,53.77
2022-12-18T07:18:55.829Z,42.60
2022-12-18T07:21:25.311Z,37.87
2022-12-18T07:23:53.335Z,33.67
2022-12-18T07:26:22.953Z,35.90
2022-12-18T07:28:51.334Z,35.83
2022-12-18T07:31:22.812Z,37.63
2022-12-18T07:33:51.889Z,40.73
2022-12-18T07:36:20.446Z,42.03
2022-12-18T07:38:53.541Z,45.50
2022-12-18T07:41:22.292Z,41.83
2022-12-18T07:43:49.831Z,42.50
2022-12-18T07:46:18.769Z,37.43
2022-12-18T07:48:49.349Z,38.23
2022-12-18T07:51:19.583Z,32.47
2022-12-18T07:53:49.763Z,35.53
2022-12-18T07:56:30.373Z,34.53
2022-12-18T07:59:00.216Z,36.80
2022-12-18T08:01:28.666Z,39.53
2022-12-18T08:03:56.149Z,40.10
2022-12-18T08:06:24.824Z,41.93
2022-12-18T08:08:54.618Z,38.90
2022-12-18T08:11:24.341Z,37.03
2022-12-18T08:13:52.194Z,32.10
2022-12-18T08:16:21.626Z,34.13
2022-12-18T08:18:49.747Z,37.63
2022-12-18T08:21:26.373Z,36.97
2022-12-18T08:23:56.755Z,38.83
2022-12-18T08:26:26.894Z,35.07
2022-12-18T08:28:57.193Z,33.27
2022-12-18T08:31:26.132Z,33.33
2022-12-18T08:33:55.421Z,43.57
2022-12-18T08:36:24.355Z,42.53
2022-12-18T08:38:52.881Z,41.17
2022-12-18T08:41:20.821Z,39.60
2022-12-18T08:44:06.743Z,37.10
2022-12-18T08:46:43.382Z,39.17
2022-12-18T08:49:12.723Z,41.95
2022-12-18T08:51:40.796Z,42.00
2022-12-18T08:54:08.368Z,47.58
2022-12-18T08:56:36.259Z,46.88
2022-12-18T08:59:05.387Z,48.45
2022-12-18T09:01:33.284Z,43.22
2022-12-18T09:04:01.564Z,42.78
2022-12-18T09:06:29.069Z,43.53
2022-12-18T09:08:56.313Z,36.85
2022-12-18T09:11:27.416Z,40.85
2022-12-18T09:13:57.019Z,42.38
2022-12-18T09:16:31.644Z,38.40
2022-12-18T09:19:00.956Z,35.70
2022-12-18T09:21:37.021Z,39.47
2022-12-18T09:24:08.506Z,36.22
2022-12-18T09:26:36.996Z,37.63
2022-12-18T09:29:05.048Z,34.55
2022-12-18T09:31:32.642Z,50.72
2022-12-18T09:33:59.970Z,40.10
2022-12-18T09:36:27.653Z,36.97
2022-12-18T09:38:54.903Z,34.47
2022-12-18T09:41:45.432Z,36.03
2022-12-18T09:44:24.359Z,37.28
2022-12-18T09:47:07.581Z,38.58
2022-12-18T09:49:43.089Z,37.95
2022-12-18T09:52:28.923Z,41.65
2022-12-18T09:55:29.890Z,42.47
2022-12-18T09:58:25.712Z,38.60
2022-12-18T10:00:54.632Z,37.45
2022-12-18T10:03:22.955Z,37.45
2022-12-18T10:06:41.199Z,38.30
2022-12-18T10:09:50.169Z,37.00
2022-12-18T10:12:45.847Z,36.53
2022-12-18T10:15:31.525Z,36.38
2022-12-18T10:18:22.181Z,35.20
2022-12-18T10:21:00.049Z,34.83
2022-12-18T10:24:00.151Z,35.50
2022-12-18T10:26:27.717Z,32.95
2022-12-18T10:28:56.947Z,30.13
2022-12-18T10:31:26.277Z,33.33
2022-12-18T10:33:56.221Z,31.73
2022-12-18T10:36:25.811Z,31.23
2022-12-18T10:38:53.197Z,33.00
2022-12-18T10:41:23.130Z,32.60
2022-12-18T10:44:13.207Z,32.55
2022-12-18T10:46:41.765Z,25.10
2022-12-18T10:49:25.027Z,22.88
2022-12-18T10:52:08.412Z,23.88
2022-12-18T10:54:37.374Z,28.77
2022-12-18T10:57:41.577Z,31.17
2022-12-18T11:00:31.476Z,27.73
2022-12-18T11:02:59.372Z,30.02
2022-12-18T11:05:35.405Z,31.02
2022-12-18T11:08:04.174Z,29.83
2022-12-18T11:10:41.103Z,33.00
2022-12-18T11:13:23.123Z,25.48
2022-12-18T11:15:51.876Z,24.08
2022-12-18T11:18:28.570Z,24.15
2022-12-18T11:21:07.311Z,23.20
2022-12-18T11:23:37.591Z,22.95
2022-12-18T11:26:07.236Z,22.50
2022-12-18T11:29:10.423Z,20.92
2022-12-18T11:31:37.758Z,21.92
2022-12-18T11:34:32.445Z,22.50
2022-12-18T11:37:04.152Z,22.73
2022-12-18T11:39:50.859Z,21.08
2022-12-18T11:42:44.074Z,19.83
2022-12-18T11:45:14.727Z,18.75
2022-12-18T11:48:06.911Z,19.30
2022-12-18T11:50:59.665Z,21.05
2022-12-18T11:53:28.840Z,17.45
2022-12-18T11:56:31.012Z,16.45
2022-12-18T11:59:04.582Z,16.90
2022-12-18T12:01:56.299Z,15.65
2022-12-18T12:05:07.644Z,17.90
2022-12-18T12:08:11.079Z,18.13
2022-12-18T12:10:48.827Z,17.23
2022-12-18T12:13:57.293Z,18.50
2022-12-18T12:16:34.761Z,18.30
2022-12-18T12:19:28.388Z,18.10
2022-12-18T12:22:21.701Z,19.70
2022-12-18T12:25:47.194Z,18.35
2022-12-18T12:28:31.291Z,18.02
2022-12-18T12:31:38.321Z,19.58
2022-12-18T12:34:27.621Z,19.55
2022-12-18T12:37:38.053Z,19.85
2022-12-18T12:40:26.808Z,20.73
2022-12-18T12:43:24.389Z,18.50
2022-12-18T12:46:02.358Z,19.33
2022-12-18T12:48:45.567Z,19.08
2022-12-18T12:51:36.623Z,20.55
2022-12-18T12:54:14.161Z,24.05
2022-12-18T12:56:50.800Z,22.08
2022-12-18T12:59:41.403Z,22.00
2022-12-18T13:02:57.610Z,21.77
2022-12-18T13:05:35.691Z,22.23
2022-12-18T13:08:28.573Z,22.85
2022-12-18T13:11:19.766Z,23.02
2022-12-18T13:13:57.166Z,20.98
2022-12-18T13:16:30.645Z,20.77
2022-12-18T13:18:59.853Z,21.52
2022-12-18T13:21:32.080Z,21.92
2022-12-18T13:24:28.285Z,21.83
2022-12-18T13:26:55.878Z,22.45
2022-12-18T13:29:46.961Z,21.75
2022-12-18T13:32:25.403Z,22.70
2022-12-18T13:35:18.173Z,23.02
2022-12-18T13:37:54.413Z,22.23
2022-12-18T13:40:39.868Z,21.45
2022-12-18T13:43:35.628Z,23.17
2022-12-18T13:46:23.857Z,23.70
2022-12-18T13:48:59.432Z,24.75
2022-12-18T13:51:28.192Z,25.63
2022-12-18T13:54:00.706Z,22.75
2022-12-18T13:56:34.525Z,29.50
2022-12-18T13:59:15.906Z,25.75
2022-12-18T14:02:06.643Z,27.85
2022-12-18T14:04:37.007Z,35.42
2022-12-18T14:07:23.569Z,33.03
2022-12-18T14:10:18.887Z,32.38
2022-12-18T14:13:00.677Z,37.65
2022-12-18T14:15:45.459Z,35.70
2022-12-18T14:18:43.398Z,35.13
2022-12-18T14:21:31.173Z,31.95
2022-12-18T14:24:24.684Z,31.75
2022-12-18T14:26:52.791Z,32.00
2022-12-18T14:29:32.068Z,34.33
2022-12-18T14:32:17.691Z,33.35
2022-12-18T14:34:51.832Z,32.55
2022-12-18T14:37:26.636Z,32.00
2022-12-18T14:39:59.159Z,29.23
2022-12-18T14:42:29.407Z,30.27
2022-12-18T14:45:43.231Z,29.55
2022-12-18T14:48:48.581Z,29.17
2022-12-18T14:51:25.870Z,35.22
2022-12-18T14:54:01.491Z,37.35
2022-12-18T14:56:33.402Z,38.33
2022-12-18T14:59:25.680Z,42.42
2022-12-18T15:02:01.950Z,47.42
2022-12-18T15:04:44.492Z,46.83
2022-12-18T15:07:23.825Z,43.35
2022-12-18T15:10:19.048Z,39.20
2022-12-18T15:12:56.131Z,40.40
2022-12-18T15:15:38.716Z,39.35
2022-12-18T15:18:09.687Z,42.50
2022-12-18T15:21:01.205Z,46.25
2022-12-18T15:24:00.777Z,45.97
2022-12-18T15:26:39.426Z,46.15
2022-12-18T15:29:10.140Z,40.57
2022-12-18T15:31:40.377Z,46.07
2022-12-18T15:34:21.657Z,45.67
2022-12-18T15:36:52.161Z,45.25
2022-12-18T15:39:19.518Z,42.15
2022-12-18T15:42:06.638Z,43.37
2022-12-18T15:44:35.222Z,45.93
2022-12-18T15:47:03.151Z,39.60
2022-12-18T15:49:30.502Z,42.85
2022-12-18T15:52:03.067Z,43.53
2022-12-18T15:54:48.870Z,39.57
2022-12-18T15:57:24.938Z,42.60
2022-12-18T15:59:55.215Z,40.30
2022-12-18T16:02:24.024Z,39.33
2022-12-18T16:04:53.819Z,38.10
2022-12-18T16:07:25.582Z,42.13
2022-12-18T16:09:54.031Z,43.03
2022-12-18T16:12:26.172Z,39.60
2022-12-18T16:14:53.559Z,41.47
2022-12-18T16:17:21.288Z,44.67
2022-12-18T16:19:48.775Z,44.53
2022-12-18T16:22:29.047Z,43.55
2022-12-18T16:24:58.193Z,45.10
2022-12-18T16:27:26.811Z,41.60
2022-12-18T16:29:54.080Z,42.40
2022-12-18T16:32:23.721Z,50.53
2022-12-18T16:34:52.364Z,50.13
2022-12-18T16:37:20.146Z,46.30
2022-12-18T16:39:47.397Z,47.43
2022-12-18T16:42:20.518Z,46.87
2022-12-18T16:44:50.112Z,48.63
2022-12-18T16:47:18.619Z,46.57
2022-12-18T16:49:46.817Z,46.27
2022-12-18T16:52:15.157Z,49.27
2022-12-18T16:54:42.538Z,51.67
2022-12-18T16:57:15.180Z,45.00
2022-12-18T16:59:43.181Z,40.20
2022-12-18T17:02:15.898Z,42.70
2022-12-18T17:04:45.402Z,39.17
2022-12-18T17:07:14.397Z,49.60
2022-12-18T17:09:42.592Z,64.33
2022-12-18T17:12:10.469Z,41.07
2022-12-18T17:14:38.047Z,44.80
2022-12-18T17:17:22.767Z,41.83
2022-12-18T17:19:52.563Z,35.50
2022-12-18T17:22:23.461Z,31.47
2022-12-18T17:24:51.374Z,30.13
2022-12-18T17:27:19.056Z,29.17
2022-12-18T17:29:48.308Z,28.23
2022-12-18T17:32:18.369Z,26.43
2022-12-18T17:34:46.544Z,26.97
2022-12-18T17:37:14.470Z,25.33
2022-12-18T17:39:42.315Z,28.80
2022-12-18T17:42:10.911Z,27.17
2022-12-18T17:44:42.775Z,28.87
2022-12-18T17:47:12.357Z,27.87
2022-12-18T17:49:39.865Z,27.87
2022-12-18T17:52:07.593Z,29.87
2022-12-18T17:54:37.901Z,32.20
2022-12-18T17:57:05.964Z,29.90
2022-12-18T17:59:33.393Z,31.40
2022-12-18T18:02:01.017Z,30.90
2022-12-18T18:04:28.486Z,31.60
2022-12-18T18:06:55.972Z,32.23
2022-12-18T18:09:23.350Z,32.07
2022-12-18T18:12:10.152Z,32.67
2022-12-18T18:14:37.515Z,32.57
2022-12-18T18:17:05.397Z,32.10
2022-12-18T18:19:34.343Z,31.60
2022-12-18T18:22:02.973Z,30.43
2022-12-18T18:24:30.977Z,31.90
2022-12-18T18:27:01.664Z,33.23
2022-12-18T18:29:33.333Z,32.53
2022-12-18T18:32:01.099Z,31.80
2022-12-18T18:34:32.195Z,33.77
2022-12-18T18:37:02.235Z,32.70
2022-12-18T18:39:30.330Z,34.27
2022-12-18T18:41:57.928Z,32.23
2022-12-18T18:44:25.939Z,32.87
2022-12-18T18:46:58.747Z,35.07
2022-12-18T18:49:28.427Z,33.40
2022-12-18T18:51:59.224Z,34.03
2022-12-18T18:54:26.977Z,33.87
2022-12-18T18:59:42.495Z,34.50
2022-12-18T19:02:14.260Z,35.93
2022-12-18T19:04:46.073Z,34.30
2022-12-18T19:07:22.543Z,32.50
2022-12-18T19:10:04.073Z,33.27
2022-12-18T19:12:52.987Z,34.20
2022-12-18T19:15:20.591Z,34.73
2022-12-18T19:17:48.407Z,33.90
2022-12-18T19:20:16.552Z,33.17
2022-12-18T19:22:47.942Z,32.87
2022-12-18T19:25:38.576Z,31.50
2022-12-18T19:28:16.427Z,32.10
2022-12-18T19:30:49.086Z,31.30
2022-12-18T19:33:45.483Z,35.10
2022-12-18T19:36:20.284Z,34.20
2022-12-18T19:38:50.213Z,32.03
2022-12-18T19:41:19.132Z,32.33
2022-12-18T19:43:47.232Z,31.13
2022-12-18T19:46:20.200Z,32.13
2022-12-18T19:48:48.701Z,32.03
2022-12-18T19:51:24.039Z,34.67
2022-12-18T19:53:58.183Z,34.03
2022-12-18T19:56:30.812Z,33.93
2022-12-18T19:58:58.506Z,33.60
2022-12-18T20:01:28.576Z,31.03
2022-12-18T20:03:57.013Z,30.23
2022-12-18T20:06:31.532Z,31.10
2022-12-18T20:09:04.743Z,30.00
2022-12-18T20:11:41.260Z,31.70
2022-12-18T20:14:12.154Z,29.70
2022-12-18T20:16:39.754Z,29.77
2022-12-18T20:19:10.197Z,30.07
2022-12-18T20:21:38.108Z,32.57
2022-12-18T20:24:08.386Z,28.87
2022-12-18T20:26:35.976Z,28.87
2022-12-18T20:29:03.663Z,31.17
2022-12-18T20:31:31.092Z,29.97
2022-12-18T20:34:01.490Z,29.87
2022-12-18T20:36:30.793Z,28.80
2022-12-18T20:39:01.567Z,28.97
2022-12-18T20:41:38.258Z,29.43
2022-12-18T20:44:21.541Z,28.03
2022-12-18T20:46:57.650Z,29.57
2022-12-18T20:49:27.325Z,27.93
2022-12-18T20:51:57.094Z,27.70
2022-12-18T20:54:27.477Z,26.37
2022-12-18T20:56:55.945Z,27.63
2022-12-18T20:59:25.695Z,27.23
2022-12-18T21:01:53.312Z,26.43
2022-12-18T21:04:22.582Z,25.13
2022-12-18T21:06:59.238Z,27.10
2022-12-18T21:09:38.152Z,26.73
2022-12-18T21:12:32.927Z,25.43
2022-12-18T21:15:10.342Z,25.50
2022-12-18T21:17:44.193Z,24.40
2022-12-18T21:20:17.600Z,24.97
2022-12-18T21:22:46.843Z,25.23
2022-12-18T21:25:14.682Z,24.90
2022-12-18T21:27:41.885Z,24.90
2022-12-18T21:30:09.991Z,25.97
2022-12-18T21:32:37.238Z,26.23
2022-12-18T21:35:05.367Z,27.00
2022-12-18T21:37:32.672Z,25.70
2022-12-18T21:40:00.221Z,26.27
2022-12-18T21:42:45.978Z,25.80
2022-12-18T21:45:13.516Z,26.43
2022-12-18T21:47:40.699Z,26.87
2022-12-18T21:50:08.911Z,26.37
2022-12-18T21:52:36.175Z,27.23
2022-12-18T21:55:09.514Z,27.37
2022-12-18T21:57:39.512Z,28.93
2022-12-18T22:00:19.120Z,28.77
2022-12-18T22:03:01.203Z,29.33
2022-12-18T22:05:36.522Z,30.83
2022-12-18T22:08:04.001Z,31.60
2022-12-18T22:10:31.600Z,31.10
2022-12-18T22:12:59.177Z,30.23
2022-12-18T22:15:26.685Z,30.20
2022-12-18T22:17:58.721Z,28.50
2022-12-18T22:20:29.700Z,31.93
2022-12-18T22:22:57.517Z,31.00
2022-12-18T22:25:25.323Z,29.77
2022-12-18T22:28:11.332Z,32.57
2022-12-18T22:30:39.171Z,31.93
2022-12-18T22:33:06.492Z,31.93
2022-12-18T22:35:33.993Z,29.10
2022-12-18T22:38:01.753Z,32.60
2022-12-18T22:40:30.095Z,30.37
2022-12-18T22:42:59.308Z,31.67
2022-12-18T22:45:27.252Z,32.03
2022-12-18T22:47:54.594Z,29.60
2022-12-18T22:50:22.209Z,32.20
2022-12-18T22:52:49.629Z,33.53
2022-12-18T22:55:17.381Z,32.83
2022-12-18T22:57:49.078Z,33.23
2022-12-18T23:00:24.263Z,34.20
2022-12-18T23:02:59.838Z,33.83
2022-12-18T23:05:30.712Z,33.30
2022-12-18T23:07:58.449Z,35.20
2022-12-18T23:10:27.405Z,33.17
2022-12-18T23:12:54.797Z,33.17
2022-12-18T23:15:27.748Z,33.10
2022-12-18T23:17:58.899Z,32.27
2022-12-18T23:20:27.867Z,32.53
2022-12-18T23:22:55.128Z,31.27
2022-12-18T23:25:24.603Z,31.17
2022-12-18T23:27:51.881Z,30.37
2022-12-18T23:30:20.298Z,28.17
2022-12-18T23:32:48.875Z,29.63
2022-12-18T23:35:17.842Z,28.40
2022-12-18T23:37:59.304Z,27.77
2022-12-18T23:40:33.406Z,28.63
2022-12-18T23:43:00.626Z,28.33
2022-12-18T23:45:28.339Z,26.03
2022-12-18T23:47:55.678Z,25.90
2022-12-18T23:50:26.759Z,26.53
2022-12-18T23:53:03.296Z,27.07
2022-12-18T23:55:39.490Z,27.23
2022-12-18T23:58:09.182Z,25.23
